RJOS(METAR)
05/28 02:00
METAR RJOS 271700Z 13007KT 9999 FEW030 BKN150 BKN230 20/19 Q1011 RMK
1CU030 5AC150 A2987=
戻る
トップページへ戻る
IMOC Co,.Ltd.